sensor_id;sensor_type;location;lat;lon;timestamp;P1;durP1;ratioP1;P2;durP2;ratioP2
80111;SDS011;69421;51.062;3.728;2024-03-22T00:02:01;23.23;;;12.73;;
80111;SDS011;69421;51.062;3.728;2024-03-22T00:04:27;22.15;;;13.18;;
80111;SDS011;69421;51.062;3.728;2024-03-22T00:06:52;20.92;;;11.05;;
80111;SDS011;69421;51.062;3.728;2024-03-22T00:09:18;19.45;;;11.90;;
80111;SDS011;69421;51.062;3.728;2024-03-22T00:11:44;22.55;;;11.65;;
80111;SDS011;69421;51.062;3.728;2024-03-22T00:14:10;19.60;;;11.82;;
80111;SDS011;69421;51.062;3.728;2024-03-22T00:16:36;26.13;;;11.77;;
80111;SDS011;69421;51.062;3.728;2024-03-22T00:19:02;19.25;;;12.32;;
80111;SDS011;69421;51.062;3.728;2024-03-22T00:21:27;25.55;;;14.73;;
80111;SDS011;69421;51.062;3.728;2024-03-22T00:23:54;24.70;;;13.85;;
80111;SDS011;69421;51.062;3.728;2024-03-22T00:26:20;22.40;;;12.75;;
80111;SDS011;69421;51.062;3.728;2024-03-22T00:28:46;24.17;;;13.57;;
80111;SDS011;69421;51.062;3.728;2024-03-22T00:31:12;28.70;;;14.73;;
80111;SDS011;69421;51.062;3.728;2024-03-22T00:33:38;26.52;;;14.18;;
80111;SDS011;69421;51.062;3.728;2024-03-22T00:36:03;22.75;;;14.27;;
80111;SDS011;69421;51.062;3.728;2024-03-22T00:38:29;30.58;;;16.13;;
80111;SDS011;69421;51.062;3.728;2024-03-22T00:40:55;25.55;;;14.95;;
80111;SDS011;69421;51.062;3.728;2024-03-22T00:43:20;23.88;;;14.50;;
80111;SDS011;69421;51.062;3.728;2024-03-22T00:45:46;24.67;;;14.05;;
80111;SDS011;69421;51.062;3.728;2024-03-22T00:48:12;27.55;;;15.93;;
80111;SDS011;69421;51.062;3.728;2024-03-22T00:50:38;25.17;;;14.98;;
80111;SDS011;69421;51.062;3.728;2024-03-22T00:53:04;22.10;;;13.68;;
80111;SDS011;69421;51.062;3.728;2024-03-22T00:55:30;24.88;;;14.70;;
80111;SDS011;69421;51.062;3.728;2024-03-22T00:57:56;29.50;;;14.20;;
80111;SDS011;69421;51.062;3.728;2024-03-22T01:00:22;30.80;;;16.00;;
80111;SDS011;69421;51.062;3.728;2024-03-22T01:02:49;28.70;;;15.63;;
80111;SDS011;69421;51.062;3.728;2024-03-22T01:05:15;28.42;;;15.80;;
80111;SDS011;69421;51.062;3.728;2024-03-22T01:07:41;30.80;;;16.05;;
80111;SDS011;69421;51.062;3.728;2024-03-22T01:10:07;30.75;;;16.52;;
80111;SDS011;69421;51.062;3.728;2024-03-22T01:12:32;32.58;;;18.10;;
80111;SDS011;69421;51.062;3.728;2024-03-22T01:14:58;29.02;;;14.98;;
80111;SDS011;69421;51.062;3.728;2024-03-22T01:17:24;31.70;;;16.30;;
80111;SDS011;69421;51.062;3.728;2024-03-22T01:19:49;29.52;;;15.10;;
80111;SDS011;69421;51.062;3.728;2024-03-22T01:22:16;31.20;;;15.88;;
80111;SDS011;69421;51.062;3.728;2024-03-22T01:24:42;32.47;;;15.98;;
80111;SDS011;69421;51.062;3.728;2024-03-22T01:27:08;31.52;;;15.25;;
80111;SDS011;69421;51.062;3.728;2024-03-22T01:29:34;34.80;;;16.27;;
80111;SDS011;69421;51.062;3.728;2024-03-22T01:32:00;33.70;;;16.50;;
80111;SDS011;69421;51.062;3.728;2024-03-22T01:34:26;32.10;;;16.27;;
80111;SDS011;69421;51.062;3.728;2024-03-22T01:36:51;29.77;;;15.95;;
80111;SDS011;69421;51.062;3.728;2024-03-22T01:39:18;35.00;;;16.08;;
80111;SDS011;69421;51.062;3.728;2024-03-22T01:41:46;30.98;;;17.27;;
80111;SDS011;69421;51.062;3.728;2024-03-22T01:44:26;31.75;;;17.23;;
80111;SDS011;69421;51.062;3.728;2024-03-22T01:46:56;32.72;;;15.75;;
80111;SDS011;69421;51.062;3.728;2024-03-22T01:49:22;34.35;;;17.60;;
80111;SDS011;69421;51.062;3.728;2024-03-22T01:51:50;32.33;;;15.32;;
80111;SDS011;69421;51.062;3.728;2024-03-22T01:54:16;31.00;;;16.17;;
80111;SDS011;69421;51.062;3.728;2024-03-22T01:56:42;32.25;;;16.98;;
80111;SDS011;69421;51.062;3.728;2024-03-22T01:59:08;32.15;;;15.48;;
80111;SDS011;69421;51.062;3.728;2024-03-22T02:01:33;31.63;;;15.65;;
80111;SDS011;69421;51.062;3.728;2024-03-22T02:04:00;26.15;;;13.70;;
80111;SDS011;69421;51.062;3.728;2024-03-22T02:06:26;28.08;;;14.45;;
80111;SDS011;69421;51.062;3.728;2024-03-22T02:08:52;29.02;;;14.25;;
80111;SDS011;69421;51.062;3.728;2024-03-22T02:11:17;26.67;;;12.63;;
80111;SDS011;69421;51.062;3.728;2024-03-22T02:13:44;25.17;;;13.75;;
80111;SDS011;69421;51.062;3.728;2024-03-22T02:16:09;28.50;;;13.55;;
80111;SDS011;69421;51.062;3.728;2024-03-22T02:18:35;24.45;;;13.18;;
80111;SDS011;69421;51.062;3.728;2024-03-22T02:21:01;24.00;;;12.25;;
80111;SDS011;69421;51.062;3.728;2024-03-22T02:23:33;28.92;;;14.82;;
80111;SDS011;69421;51.062;3.728;2024-03-22T02:26:00;24.67;;;12.20;;
80111;SDS011;69421;51.062;3.728;2024-03-22T02:28:26;23.90;;;12.57;;
80111;SDS011;69421;51.062;3.728;2024-03-22T02:30:52;21.83;;;13.82;;
80111;SDS011;69421;51.062;3.728;2024-03-22T02:33:17;24.17;;;13.10;;
80111;SDS011;69421;51.062;3.728;2024-03-22T02:35:43;24.02;;;12.05;;
80111;SDS011;69421;51.062;3.728;2024-03-22T02:38:11;23.50;;;12.48;;
80111;SDS011;69421;51.062;3.728;2024-03-22T02:40:37;24.40;;;12.55;;
80111;SDS011;69421;51.062;3.728;2024-03-22T02:43:02;23.10;;;12.65;;
80111;SDS011;69421;51.062;3.728;2024-03-22T02:45:29;24.95;;;13.48;;
80111;SDS011;69421;51.062;3.728;2024-03-22T02:47:56;26.98;;;14.00;;
80111;SDS011;69421;51.062;3.728;2024-03-22T02:50:21;27.80;;;12.93;;
80111;SDS011;69421;51.062;3.728;2024-03-22T02:52:50;23.33;;;12.95;;
80111;SDS011;69421;51.062;3.728;2024-03-22T02:55:16;24.45;;;13.30;;
80111;SDS011;69421;51.062;3.728;2024-03-22T02:57:41;21.17;;;12.02;;
80111;SDS011;69421;51.062;3.728;2024-03-22T03:00:07;26.63;;;13.93;;
80111;SDS011;69421;51.062;3.728;2024-03-22T03:02:33;24.98;;;13.23;;
80111;SDS011;69421;51.062;3.728;2024-03-22T03:04:59;27.92;;;13.70;;
80111;SDS011;69421;51.062;3.728;2024-03-22T03:07:25;24.67;;;13.63;;
80111;SDS011;69421;51.062;3.728;2024-03-22T03:09:51;26.98;;;11.95;;
80111;SDS011;69421;51.062;3.728;2024-03-22T03:12:16;25.10;;;13.35;;
80111;SDS011;69421;51.062;3.728;2024-03-22T03:14:42;25.60;;;12.60;;
80111;SDS011;69421;51.062;3.728;2024-03-22T03:17:07;25.73;;;13.57;;
80111;SDS011;69421;51.062;3.728;2024-03-22T03:19:33;22.38;;;12.43;;
80111;SDS011;69421;51.062;3.728;2024-03-22T03:21:59;25.30;;;12.90;;
80111;SDS011;69421;51.062;3.728;2024-03-22T03:24:24;21.25;;;11.27;;
80111;SDS011;69421;51.062;3.728;2024-03-22T03:26:50;20.23;;;10.30;;
80111;SDS011;69421;51.062;3.728;2024-03-22T03:29:15;22.88;;;11.85;;
80111;SDS011;69421;51.062;3.728;2024-03-22T03:31:41;21.77;;;11.15;;
80111;SDS011;69421;51.062;3.728;2024-03-22T03:34:07;23.08;;;11.18;;
80111;SDS011;69421;51.062;3.728;2024-03-22T03:36:32;16.10;;;8.55;;
80111;SDS011;69421;51.062;3.728;2024-03-22T03:38:58;16.30;;;8.90;;
80111;SDS011;69421;51.062;3.728;2024-03-22T03:41:23;21.20;;;8.93;;
80111;SDS011;69421;51.062;3.728;2024-03-22T03:43:49;15.68;;;8.32;;
80111;SDS011;69421;51.062;3.728;2024-03-22T03:46:14;18.92;;;10.10;;
80111;SDS011;69421;51.062;3.728;2024-03-22T03:48:40;17.83;;;9.18;;
80111;SDS011;69421;51.062;3.728;2024-03-22T03:51:06;17.27;;;8.73;;
80111;SDS011;69421;51.062;3.728;2024-03-22T03:53:31;16.23;;;8.45;;
80111;SDS011;69421;51.062;3.728;2024-03-22T03:55:57;17.00;;;8.95;;
80111;SDS011;69421;51.062;3.728;2024-03-22T03:58:22;18.98;;;9.38;;
80111;SDS011;69421;51.062;3.728;2024-03-22T04:00:48;16.52;;;8.98;;
80111;SDS011;69421;51.062;3.728;2024-03-22T04:03:14;15.55;;;8.80;;
80111;SDS011;69421;51.062;3.728;2024-03-22T04:05:39;20.42;;;9.98;;
80111;SDS011;69421;51.062;3.728;2024-03-22T04:08:05;17.40;;;9.23;;
80111;SDS011;69421;51.062;3.728;2024-03-22T04:10:31;18.40;;;8.70;;
80111;SDS011;69421;51.062;3.728;2024-03-22T04:12:57;18.67;;;9.40;;
80111;SDS011;69421;51.062;3.728;2024-03-22T04:15:23;16.73;;;7.88;;
80111;SDS011;69421;51.062;3.728;2024-03-22T04:17:48;19.27;;;9.27;;
80111;SDS011;69421;51.062;3.728;2024-03-22T04:20:14;18.65;;;9.85;;
80111;SDS011;69421;51.062;3.728;2024-03-22T04:22:40;21.38;;;11.27;;
80111;SDS011;69421;51.062;3.728;2024-03-22T04:25:05;15.23;;;8.55;;
80111;SDS011;69421;51.062;3.728;2024-03-22T04:27:31;16.95;;;8.45;;
80111;SDS011;69421;51.062;3.728;2024-03-22T04:29:57;19.75;;;9.93;;
80111;SDS011;69421;51.062;3.728;2024-03-22T04:32:23;18.25;;;9.10;;
80111;SDS011;69421;51.062;3.728;2024-03-22T04:34:49;20.85;;;9.88;;
80111;SDS011;69421;51.062;3.728;2024-03-22T04:37:14;15.45;;;8.50;;
80111;SDS011;69421;51.062;3.728;2024-03-22T04:39:40;17.70;;;9.38;;
80111;SDS011;69421;51.062;3.728;2024-03-22T04:42:06;19.40;;;9.85;;
80111;SDS011;69421;51.062;3.728;2024-03-22T04:44:32;21.23;;;11.18;;
80111;SDS011;69421;51.062;3.728;2024-03-22T04:46:58;18.92;;;9.40;;
80111;SDS011;69421;51.062;3.728;2024-03-22T04:49:24;17.05;;;9.23;;
80111;SDS011;69421;51.062;3.728;2024-03-22T04:51:49;15.65;;;8.77;;
80111;SDS011;69421;51.062;3.728;2024-03-22T04:54:15;17.45;;;9.50;;
80111;SDS011;69421;51.062;3.728;2024-03-22T04:56:41;15.25;;;8.80;;
80111;SDS011;69421;51.062;3.728;2024-03-22T04:59:06;12.60;;;7.78;;
80111;SDS011;69421;51.062;3.728;2024-03-22T05:01:32;16.08;;;7.95;;
80111;SDS011;69421;51.062;3.728;2024-03-22T05:03:57;16.05;;;7.95;;
80111;SDS011;69421;51.062;3.728;2024-03-22T05:06:23;17.17;;;8.13;;
80111;SDS011;69421;51.062;3.728;2024-03-22T05:08:49;15.55;;;8.18;;
80111;SDS011;69421;51.062;3.728;2024-03-22T05:11:14;12.93;;;7.13;;
80111;SDS011;69421;51.062;3.728;2024-03-22T05:13:40;15.45;;;7.18;;
80111;SDS011;69421;51.062;3.728;2024-03-22T05:16:06;14.98;;;7.65;;
80111;SDS011;69421;51.062;3.728;2024-03-22T05:18:32;12.90;;;6.97;;
80111;SDS011;69421;51.062;3.728;2024-03-22T05:20:58;13.57;;;6.75;;
80111;SDS011;69421;51.062;3.728;2024-03-22T05:23:23;12.60;;;6.22;;
80111;SDS011;69421;51.062;3.728;2024-03-22T05:25:49;16.00;;;8.70;;
80111;SDS011;69421;51.062;3.728;2024-03-22T05:28:15;14.30;;;7.38;;
80111;SDS011;69421;51.062;3.728;2024-03-22T05:30:40;14.52;;;7.32;;
80111;SDS011;69421;51.062;3.728;2024-03-22T05:33:06;14.57;;;8.13;;
80111;SDS011;69421;51.062;3.728;2024-03-22T05:35:31;15.77;;;8.82;;
80111;SDS011;69421;51.062;3.728;2024-03-22T05:37:57;15.05;;;7.75;;
80111;SDS011;69421;51.062;3.728;2024-03-22T05:40:23;14.55;;;7.55;;
80111;SDS011;69421;51.062;3.728;2024-03-22T05:42:48;15.85;;;8.32;;
80111;SDS011;69421;51.062;3.728;2024-03-22T05:45:14;13.45;;;7.78;;
80111;SDS011;69421;51.062;3.728;2024-03-22T05:47:40;13.88;;;7.18;;
80111;SDS011;69421;51.062;3.728;2024-03-22T05:50:05;12.88;;;7.13;;
80111;SDS011;69421;51.062;3.728;2024-03-22T05:52:33;13.75;;;7.43;;
80111;SDS011;69421;51.062;3.728;2024-03-22T05:54:59;12.10;;;7.63;;
80111;SDS011;69421;51.062;3.728;2024-03-22T05:57:24;14.55;;;7.63;;
80111;SDS011;69421;51.062;3.728;2024-03-22T05:59:50;10.63;;;6.43;;
80111;SDS011;69421;51.062;3.728;2024-03-22T06:02:16;16.15;;;7.78;;
80111;SDS011;69421;51.062;3.728;2024-03-22T06:04:42;13.48;;;9.70;;
80111;SDS011;69421;51.062;3.728;2024-03-22T06:07:08;14.25;;;7.85;;
80111;SDS011;69421;51.062;3.728;2024-03-22T06:09:33;13.18;;;7.93;;
80111;SDS011;69421;51.062;3.728;2024-03-22T06:12:05;12.85;;;8.07;;
80111;SDS011;69421;51.062;3.728;2024-03-22T06:14:31;14.07;;;7.95;;
80111;SDS011;69421;51.062;3.728;2024-03-22T06:16:57;14.02;;;8.13;;
80111;SDS011;69421;51.062;3.728;2024-03-22T06:19:23;15.85;;;8.30;;
80111;SDS011;69421;51.062;3.728;2024-03-22T06:21:49;13.48;;;7.63;;
80111;SDS011;69421;51.062;3.728;2024-03-22T06:24:14;12.48;;;7.15;;
80111;SDS011;69421;51.062;3.728;2024-03-22T06:26:40;12.85;;;7.20;;
80111;SDS011;69421;51.062;3.728;2024-03-22T06:29:05;10.70;;;5.82;;
80111;SDS011;69421;51.062;3.728;2024-03-22T06:31:31;10.77;;;6.38;;
80111;SDS011;69421;51.062;3.728;2024-03-22T06:33:57;11.43;;;6.85;;
80111;SDS011;69421;51.062;3.728;2024-03-22T06:36:27;13.23;;;7.55;;
80111;SDS011;69421;51.062;3.728;2024-03-22T06:38:57;12.88;;;6.88;;
80111;SDS011;69421;51.062;3.728;2024-03-22T06:41:22;10.63;;;6.37;;
80111;SDS011;69421;51.062;3.728;2024-03-22T06:43:48;13.07;;;6.40;;
80111;SDS011;69421;51.062;3.728;2024-03-22T06:46:13;12.18;;;6.82;;
80111;SDS011;69421;51.062;3.728;2024-03-22T06:48:39;11.65;;;5.85;;
80111;SDS011;69421;51.062;3.728;2024-03-22T06:51:05;9.63;;;6.03;;
80111;SDS011;69421;51.062;3.728;2024-03-22T06:53:30;12.63;;;8.15;;
80111;SDS011;69421;51.062;3.728;2024-03-22T06:55:56;10.93;;;6.50;;
80111;SDS011;69421;51.062;3.728;2024-03-22T06:58:21;12.75;;;6.57;;
80111;SDS011;69421;51.062;3.728;2024-03-22T07:00:47;8.05;;;5.05;;
80111;SDS011;69421;51.062;3.728;2024-03-22T07:03:12;10.38;;;6.40;;
80111;SDS011;69421;51.062;3.728;2024-03-22T07:05:39;9.43;;;5.38;;
80111;SDS011;69421;51.062;3.728;2024-03-22T07:08:05;8.77;;;5.07;;
80111;SDS011;69421;51.062;3.728;2024-03-22T07:10:31;8.85;;;4.95;;
80111;SDS011;69421;51.062;3.728;2024-03-22T07:12:57;10.55;;;4.85;;
80111;SDS011;69421;51.062;3.728;2024-03-22T07:15:23;9.23;;;4.88;;
80111;SDS011;69421;51.062;3.728;2024-03-22T07:17:49;11.07;;;4.65;;
80111;SDS011;69421;51.062;3.728;2024-03-22T07:20:15;7.72;;;4.80;;
80111;SDS011;69421;51.062;3.728;2024-03-22T07:22:41;8.93;;;4.72;;
80111;SDS011;69421;51.062;3.728;2024-03-22T07:25:07;14.30;;;6.47;;
80111;SDS011;69421;51.062;3.728;2024-03-22T07:27:35;11.10;;;5.55;;
80111;SDS011;69421;51.062;3.728;2024-03-22T07:30:01;10.15;;;5.47;;
80111;SDS011;69421;51.062;3.728;2024-03-22T07:32:28;10.98;;;5.22;;
80111;SDS011;69421;51.062;3.728;2024-03-22T07:34:54;11.98;;;5.38;;
80111;SDS011;69421;51.062;3.728;2024-03-22T07:37:20;9.65;;;5.55;;
80111;SDS011;69421;51.062;3.728;2024-03-22T07:39:46;10.85;;;5.90;;
80111;SDS011;69421;51.062;3.728;2024-03-22T07:42:11;10.43;;;6.43;;
80111;SDS011;69421;51.062;3.728;2024-03-22T07:44:37;13.32;;;6.45;;
80111;SDS011;69421;51.062;3.728;2024-03-22T07:47:02;10.45;;;5.90;;
80111;SDS011;69421;51.062;3.728;2024-03-22T07:49:28;11.80;;;5.57;;
80111;SDS011;69421;51.062;3.728;2024-03-22T07:51:54;11.45;;;6.75;;
80111;SDS011;69421;51.062;3.728;2024-03-22T07:54:20;14.48;;;6.25;;
80111;SDS011;69421;51.062;3.728;2024-03-22T07:56:45;10.85;;;5.82;;
80111;SDS011;69421;51.062;3.728;2024-03-22T07:59:11;10.40;;;6.60;;
80111;SDS011;69421;51.062;3.728;2024-03-22T08:01:37;12.15;;;5.30;;
80111;SDS011;69421;51.062;3.728;2024-03-22T08:04:02;8.00;;;4.72;;
80111;SDS011;69421;51.062;3.728;2024-03-22T08:06:28;10.20;;;6.15;;
80111;SDS011;69421;51.062;3.728;2024-03-22T08:08:54;8.68;;;5.57;;
80111;SDS011;69421;51.062;3.728;2024-03-22T08:11:19;10.25;;;5.18;;
80111;SDS011;69421;51.062;3.728;2024-03-22T08:13:45;11.95;;;5.35;;
80111;SDS011;69421;51.062;3.728;2024-03-22T08:16:11;9.80;;;5.68;;
80111;SDS011;69421;51.062;3.728;2024-03-22T08:18:37;14.20;;;5.28;;
80111;SDS011;69421;51.062;3.728;2024-03-22T08:21:03;7.25;;;4.68;;
80111;SDS011;69421;51.062;3.728;2024-03-22T08:23:29;11.13;;;5.05;;
80111;SDS011;69421;51.062;3.728;2024-03-22T08:25:54;9.50;;;4.43;;
80111;SDS011;69421;51.062;3.728;2024-03-22T08:28:22;11.38;;;5.28;;
80111;SDS011;69421;51.062;3.728;2024-03-22T08:30:47;13.35;;;6.43;;
80111;SDS011;69421;51.062;3.728;2024-03-22T08:33:13;9.98;;;4.85;;
80111;SDS011;69421;51.062;3.728;2024-03-22T08:35:39;10.93;;;4.95;;
80111;SDS011;69421;51.062;3.728;2024-03-22T08:38:05;12.85;;;5.40;;
80111;SDS011;69421;51.062;3.728;2024-03-22T08:40:36;13.07;;;5.38;;
80111;SDS011;69421;51.062;3.728;2024-03-22T08:43:03;9.57;;;4.95;;
80111;SDS011;69421;51.062;3.728;2024-03-22T08:45:29;8.48;;;4.45;;
80111;SDS011;69421;51.062;3.728;2024-03-22T08:47:54;11.03;;;5.13;;
80111;SDS011;69421;51.062;3.728;2024-03-22T08:50:20;12.13;;;4.75;;
80111;SDS011;69421;51.062;3.728;2024-03-22T08:52:45;15.32;;;5.47;;
80111;SDS011;69421;51.062;3.728;2024-03-22T08:55:11;8.88;;;5.78;;
80111;SDS011;69421;51.062;3.728;2024-03-22T08:57:38;8.73;;;4.63;;
80111;SDS011;69421;51.062;3.728;2024-03-22T09:00:04;11.40;;;4.80;;
80111;SDS011;69421;51.062;3.728;2024-03-22T09:02:30;11.38;;;5.18;;
80111;SDS011;69421;51.062;3.728;2024-03-22T09:04:55;8.45;;;4.20;;
80111;SDS011;69421;51.062;3.728;2024-03-22T09:07:21;8.52;;;4.63;;
80111;SDS011;69421;51.062;3.728;2024-03-22T09:09:48;10.40;;;4.40;;
80111;SDS011;69421;51.062;3.728;2024-03-22T09:12:14;12.00;;;5.47;;
80111;SDS011;69421;51.062;3.728;2024-03-22T09:14:39;10.73;;;4.63;;
80111;SDS011;69421;51.062;3.728;2024-03-22T09:17:05;9.77;;;4.88;;
80111;SDS011;69421;51.062;3.728;2024-03-22T09:19:31;13.10;;;4.70;;
80111;SDS011;69421;51.062;3.728;2024-03-22T09:21:56;9.95;;;4.43;;
80111;SDS011;69421;51.062;3.728;2024-03-22T09:24:22;10.93;;;4.03;;
80111;SDS011;69421;51.062;3.728;2024-03-22T09:26:48;9.52;;;4.47;;
80111;SDS011;69421;51.062;3.728;2024-03-22T09:29:13;12.23;;;3.85;;
80111;SDS011;69421;51.062;3.728;2024-03-22T09:31:39;10.40;;;4.87;;
80111;SDS011;69421;51.062;3.728;2024-03-22T09:34:05;9.23;;;4.72;;
80111;SDS011;69421;51.062;3.728;2024-03-22T09:36:30;9.82;;;4.90;;
80111;SDS011;69421;51.062;3.728;2024-03-22T09:39:00;12.30;;;4.85;;
80111;SDS011;69421;51.062;3.728;2024-03-22T09:41:26;10.23;;;4.25;;
80111;SDS011;69421;51.062;3.728;2024-03-22T09:43:52;11.18;;;3.75;;
80111;SDS011;69421;51.062;3.728;2024-03-22T09:46:18;7.43;;;3.50;;
80111;SDS011;69421;51.062;3.728;2024-03-22T09:48:47;7.05;;;3.58;;
80111;SDS011;69421;51.062;3.728;2024-03-22T09:51:15;8.35;;;3.97;;
80111;SDS011;69421;51.062;3.728;2024-03-22T09:53:41;7.45;;;3.30;;
80111;SDS011;69421;51.062;3.728;2024-03-22T09:56:12;16.50;;;7.15;;
80111;SDS011;69421;51.062;3.728;2024-03-22T09:58:40;20.98;;;8.20;;
80111;SDS011;69421;51.062;3.728;2024-03-22T10:01:06;14.57;;;6.65;;
80111;SDS011;69421;51.062;3.728;2024-03-22T10:03:32;19.73;;;8.68;;
80111;SDS011;69421;51.062;3.728;2024-03-22T10:05:58;24.73;;;8.35;;
80111;SDS011;69421;51.062;3.728;2024-03-22T10:08:24;24.05;;;11.30;;
80111;SDS011;69421;51.062;3.728;2024-03-22T10:10:50;14.05;;;5.50;;
80111;SDS011;69421;51.062;3.728;2024-03-22T10:13:15;19.83;;;10.23;;
80111;SDS011;69421;51.062;3.728;2024-03-22T10:15:41;15.35;;;9.57;;
80111;SDS011;69421;51.062;3.728;2024-03-22T10:18:06;9.52;;;4.80;;
80111;SDS011;69421;51.062;3.728;2024-03-22T10:20:34;17.35;;;9.75;;
80111;SDS011;69421;51.062;3.728;2024-03-22T10:22:59;15.80;;;7.85;;
80111;SDS011;69421;51.062;3.728;2024-03-22T10:25:25;10.65;;;5.55;;
80111;SDS011;69421;51.062;3.728;2024-03-22T10:27:55;12.38;;;7.57;;
80111;SDS011;69421;51.062;3.728;2024-03-22T10:30:21;9.40;;;5.05;;
80111;SDS011;69421;51.062;3.728;2024-03-22T10:32:51;14.43;;;8.95;;
80111;SDS011;69421;51.062;3.728;2024-03-22T10:35:17;12.32;;;6.13;;
80111;SDS011;69421;51.062;3.728;2024-03-22T10:37:43;11.18;;;6.32;;
80111;SDS011;69421;51.062;3.728;2024-03-22T10:40:09;8.55;;;5.68;;
80111;SDS011;69421;51.062;3.728;2024-03-22T10:42:37;8.00;;;3.95;;
80111;SDS011;69421;51.062;3.728;2024-03-22T10:45:07;9.57;;;4.53;;
80111;SDS011;69421;51.062;3.728;2024-03-22T10:47:34;11.93;;;5.65;;
80111;SDS011;69421;51.062;3.728;2024-03-22T10:50:08;7.57;;;3.88;;
80111;SDS011;69421;51.062;3.728;2024-03-22T10:55:24;6.35;;;4.63;;
80111;SDS011;69421;51.062;3.728;2024-03-22T10:57:56;9.82;;;3.72;;
80111;SDS011;69421;51.062;3.728;2024-03-22T11:00:28;11.02;;;5.55;;
80111;SDS011;69421;51.062;3.728;2024-03-22T11:02:54;10.65;;;4.90;;
80111;SDS011;69421;51.062;3.728;2024-03-22T11:05:20;10.70;;;5.70;;
80111;SDS011;69421;51.062;3.728;2024-03-22T11:07:46;10.25;;;4.50;;
80111;SDS011;69421;51.062;3.728;2024-03-22T11:10:13;10.32;;;4.07;;
80111;SDS011;69421;51.062;3.728;2024-03-22T11:12:39;13.32;;;5.05;;
80111;SDS011;69421;51.062;3.728;2024-03-22T11:15:05;9.85;;;5.30;;
80111;SDS011;69421;51.062;3.728;2024-03-22T11:17:31;9.93;;;4.40;;
80111;SDS011;69421;51.062;3.728;2024-03-22T11:19:57;9.00;;;4.85;;
80111;SDS011;69421;51.062;3.728;2024-03-22T11:22:22;12.40;;;4.50;;
80111;SDS011;69421;51.062;3.728;2024-03-22T11:24:50;11.30;;;5.07;;
80111;SDS011;69421;51.062;3.728;2024-03-22T11:27:17;15.48;;;5.25;;
80111;SDS011;69421;51.062;3.728;2024-03-22T11:29:42;12.18;;;5.55;;
80111;SDS011;69421;51.062;3.728;2024-03-22T11:32:09;13.95;;;6.32;;
80111;SDS011;69421;51.062;3.728;2024-03-22T11:34:37;13.48;;;6.85;;
80111;SDS011;69421;51.062;3.728;2024-03-22T11:37:05;20.17;;;12.05;;
80111;SDS011;69421;51.062;3.728;2024-03-22T11:39:36;49.63;;;25.35;;
80111;SDS011;69421;51.062;3.728;2024-03-22T11:42:03;26.98;;;12.95;;
80111;SDS011;69421;51.062;3.728;2024-03-22T11:44:30;15.13;;;8.10;;
80111;SDS011;69421;51.062;3.728;2024-03-22T11:46:56;11.02;;;6.63;;
80111;SDS011;69421;51.062;3.728;2024-03-22T11:49:22;11.32;;;6.55;;
80111;SDS011;69421;51.062;3.728;2024-03-22T11:51:48;12.55;;;7.60;;
80111;SDS011;69421;51.062;3.728;2024-03-22T11:54:13;11.95;;;7.57;;
80111;SDS011;69421;51.062;3.728;2024-03-22T11:56:40;16.80;;;10.07;;
80111;SDS011;69421;51.062;3.728;2024-03-22T11:59:06;17.52;;;10.13;;
80111;SDS011;69421;51.062;3.728;2024-03-22T12:01:32;16.08;;;8.70;;
80111;SDS011;69421;51.062;3.728;2024-03-22T12:03:58;14.25;;;7.40;;
80111;SDS011;69421;51.062;3.728;2024-03-22T12:06:24;9.57;;;4.97;;
80111;SDS011;69421;51.062;3.728;2024-03-22T12:08:49;14.25;;;7.70;;
80111;SDS011;69421;51.062;3.728;2024-03-22T12:11:16;16.90;;;8.95;;
80111;SDS011;69421;51.062;3.728;2024-03-22T12:13:41;19.90;;;7.82;;
80111;SDS011;69421;51.062;3.728;2024-03-22T12:16:07;10.00;;;6.85;;
80111;SDS011;69421;51.062;3.728;2024-03-22T12:18:33;12.93;;;7.90;;
80111;SDS011;69421;51.062;3.728;2024-03-22T12:20:59;13.93;;;8.85;;
80111;SDS011;69421;51.062;3.728;2024-03-22T12:23:25;14.23;;;8.35;;
80111;SDS011;69421;51.062;3.728;2024-03-22T12:25:51;16.77;;;11.18;;
80111;SDS011;69421;51.062;3.728;2024-03-22T12:28:17;17.58;;;10.23;;
80111;SDS011;69421;51.062;3.728;2024-03-22T12:30:43;17.30;;;14.35;;
80111;SDS011;69421;51.062;3.728;2024-03-22T12:33:09;15.27;;;9.02;;
80111;SDS011;69421;51.062;3.728;2024-03-22T12:35:40;17.60;;;9.63;;
80111;SDS011;69421;51.062;3.728;2024-03-22T12:38:06;24.35;;;9.45;;
80111;SDS011;69421;51.062;3.728;2024-03-22T12:43:01;17.20;;;9.97;;
80111;SDS011;69421;51.062;3.728;2024-03-22T12:45:26;22.48;;;10.02;;
80111;SDS011;69421;51.062;3.728;2024-03-22T12:47:52;19.75;;;11.55;;
80111;SDS011;69421;51.062;3.728;2024-03-22T12:50:18;49.83;;;25.95;;
80111;SDS011;69421;51.062;3.728;2024-03-22T12:52:44;28.30;;;13.07;;
80111;SDS011;69421;51.062;3.728;2024-03-22T12:55:10;34.20;;;19.98;;
80111;SDS011;69421;51.062;3.728;2024-03-22T12:57:36;27.73;;;16.95;;
80111;SDS011;69421;51.062;3.728;2024-03-22T13:00:01;20.55;;;12.45;;
80111;SDS011;69421;51.062;3.728;2024-03-22T13:02:29;14.13;;;8.38;;
80111;SDS011;69421;51.062;3.728;2024-03-22T13:04:57;12.88;;;8.00;;
80111;SDS011;69421;51.062;3.728;2024-03-22T13:07:23;16.48;;;9.18;;
80111;SDS011;69421;51.062;3.728;2024-03-22T13:09:50;15.15;;;7.53;;
80111;SDS011;69421;51.062;3.728;2024-03-22T13:12:15;12.35;;;8.18;;
80111;SDS011;69421;51.062;3.728;2024-03-22T13:14:41;21.17;;;12.88;;
80111;SDS011;69421;51.062;3.728;2024-03-22T13:17:06;21.38;;;12.88;;
80111;SDS011;69421;51.062;3.728;2024-03-22T13:19:33;22.90;;;10.43;;
80111;SDS011;69421;51.062;3.728;2024-03-22T13:21:59;33.65;;;16.63;;
80111;SDS011;69421;51.062;3.728;2024-03-22T13:24:25;22.07;;;14.60;;
80111;SDS011;69421;51.062;3.728;2024-03-22T13:26:50;18.05;;;11.77;;
80111;SDS011;69421;51.062;3.728;2024-03-22T13:29:16;22.20;;;12.10;;
80111;SDS011;69421;51.062;3.728;2024-03-22T13:31:42;19.25;;;11.23;;
80111;SDS011;69421;51.062;3.728;2024-03-22T13:34:08;22.23;;;14.75;;
80111;SDS011;69421;51.062;3.728;2024-03-22T13:36:34;20.92;;;12.80;;
80111;SDS011;69421;51.062;3.728;2024-03-22T13:39:01;25.33;;;14.30;;
80111;SDS011;69421;51.062;3.728;2024-03-22T13:41:27;29.98;;;19.80;;
80111;SDS011;69421;51.062;3.728;2024-03-22T13:43:53;27.20;;;15.35;;
80111;SDS011;69421;51.062;3.728;2024-03-22T13:46:18;23.80;;;16.30;;
80111;SDS011;69421;51.062;3.728;2024-03-22T13:48:43;21.07;;;13.30;;
80111;SDS011;69421;51.062;3.728;2024-03-22T13:51:09;32.97;;;18.42;;
80111;SDS011;69421;51.062;3.728;2024-03-22T13:53:35;28.02;;;17.45;;
80111;SDS011;69421;51.062;3.728;2024-03-22T13:56:02;39.20;;;21.30;;
80111;SDS011;69421;51.062;3.728;2024-03-22T13:58:27;77.72;;;40.20;;
80111;SDS011;69421;51.062;3.728;2024-03-22T14:00:53;37.92;;;21.27;;
80111;SDS011;69421;51.062;3.728;2024-03-22T14:03:19;39.35;;;28.92;;
80111;SDS011;69421;51.062;3.728;2024-03-22T14:05:45;30.52;;;18.75;;
80111;SDS011;69421;51.062;3.728;2024-03-22T14:08:10;33.72;;;21.67;;
80111;SDS011;69421;51.062;3.728;2024-03-22T14:10:36;26.02;;;18.55;;
80111;SDS011;69421;51.062;3.728;2024-03-22T14:13:03;20.67;;;12.38;;
80111;SDS011;69421;51.062;3.728;2024-03-22T14:15:29;34.63;;;27.35;;
80111;SDS011;69421;51.062;3.728;2024-03-22T14:17:57;20.20;;;10.02;;
80111;SDS011;69421;51.062;3.728;2024-03-22T14:20:23;21.10;;;13.75;;
80111;SDS011;69421;51.062;3.728;2024-03-22T14:22:50;25.45;;;13.35;;
80111;SDS011;69421;51.062;3.728;2024-03-22T14:25:16;18.85;;;11.50;;
80111;SDS011;69421;51.062;3.728;2024-03-22T14:27:43;21.52;;;12.50;;
80111;SDS011;69421;51.062;3.728;2024-03-22T14:30:11;19.10;;;11.85;;